createdAt,value
2023-02-01T00:00:33.754Z,868
2023-02-01T00:01:33.595Z,792
2023-02-01T00:02:33.656Z,680
2023-02-01T00:03:33.663Z,687
2023-02-01T00:05:33.811Z,642
2023-02-01T00:06:33.630Z,597
2023-02-01T00:07:33.615Z,575
2023-02-01T00:08:33.622Z,647
2023-02-01T00:10:33.752Z,562
2023-02-01T00:11:33.621Z,680
2023-02-01T00:12:33.576Z,738
2023-02-01T00:13:33.611Z,911
2023-02-01T00:15:33.869Z,847
2023-02-01T00:16:33.617Z,832
2023-02-01T00:17:33.616Z,842
2023-02-01T00:18:33.614Z,832
2023-02-01T00:20:33.772Z,1154
2023-02-01T00:21:33.609Z,617
2023-02-01T00:22:33.642Z,642
2023-02-01T00:23:33.652Z,642
2023-02-01T00:25:33.848Z,617
2023-02-01T00:26:33.664Z,606
2023-02-01T00:27:33.640Z,620
2023-02-01T00:28:33.619Z,706
2023-02-01T00:30:33.880Z,885
2023-02-01T00:31:33.812Z,1071
2023-02-01T00:32:33.610Z,1130
2023-02-01T00:33:33.666Z,1273
2023-02-01T00:35:33.833Z,874
2023-02-01T00:36:33.618Z,812
2023-02-01T00:37:33.627Z,911
2023-02-01T00:38:33.631Z,779
2023-02-01T00:40:33.784Z,552
2023-02-01T00:41:33.581Z,660
2023-02-01T00:42:33.585Z,631
2023-02-01T00:43:33.645Z,672
2023-02-01T00:45:33.764Z,777
2023-02-01T00:46:33.669Z,642
2023-02-01T00:47:33.623Z,576
2023-02-01T00:48:33.631Z,817
2023-02-01T00:50:33.782Z,592
2023-02-01T00:51:33.659Z,808
2023-02-01T00:52:33.585Z,624
2023-02-01T00:53:33.654Z,751
2023-02-01T00:55:33.780Z,770
2023-02-01T00:56:33.617Z,734
2023-02-01T00:57:33.588Z,768
2023-02-01T00:58:33.620Z,698
2023-02-01T01:00:33.845Z,734
2023-02-01T01:01:33.629Z,794
2023-02-01T01:02:33.653Z,864
2023-02-01T01:03:33.625Z,707
2023-02-01T01:05:33.837Z,634
2023-02-01T01:06:33.616Z,594
2023-02-01T01:07:33.657Z,594
2023-02-01T01:08:33.671Z,594
2023-02-01T01:10:33.797Z,689
2023-02-01T01:11:33.631Z,611
2023-02-01T01:12:33.657Z,594
2023-02-01T01:13:33.630Z,646
2023-02-01T01:15:33.776Z,618
2023-02-01T01:16:33.616Z,682
2023-02-01T01:17:33.662Z,640
2023-02-01T01:18:33.645Z,611
2023-02-01T01:20:33.798Z,633
2023-02-01T01:21:33.628Z,712
2023-02-01T01:22:33.626Z,588
2023-02-01T01:23:33.668Z,588
2023-02-01T01:25:33.832Z,726
2023-02-01T01:26:33.652Z,741
2023-02-01T01:27:33.597Z,916
2023-02-01T01:28:33.624Z,730
2023-02-01T01:30:33.899Z,610
2023-02-01T01:31:33.705Z,933
2023-02-01T01:32:33.653Z,911
2023-02-01T01:33:33.654Z,992
2023-02-01T01:35:33.868Z,1068
2023-02-01T01:36:33.663Z,1137
2023-02-01T01:37:33.637Z,1147
2023-02-01T01:38:33.643Z,1002
2023-02-01T01:40:33.873Z,1414
2023-02-01T01:41:33.698Z,1018
2023-02-01T01:42:33.667Z,1059
2023-02-01T01:43:33.636Z,1049
2023-02-01T01:45:33.786Z,933
2023-02-01T01:46:33.744Z,878
2023-02-01T01:47:33.668Z,930
2023-02-01T01:48:33.625Z,962
2023-02-01T01:50:33.795Z,870
2023-02-01T01:51:33.645Z,668
2023-02-01T01:52:33.633Z,992
2023-02-01T01:53:33.642Z,899
2023-02-01T01:55:33.792Z,960
2023-02-01T01:56:33.654Z,992
2023-02-01T01:57:33.651Z,1040
2023-02-01T01:58:33.603Z,955
2023-02-01T02:00:33.850Z,933
2023-02-01T02:01:33.605Z,885
2023-02-01T02:02:33.645Z,927
2023-02-01T02:03:33.667Z,878
2023-02-01T02:05:33.850Z,658
2023-02-01T02:06:33.677Z,920
2023-02-01T02:07:33.651Z,665
2023-02-01T02:08:33.650Z,621
2023-02-01T02:10:33.844Z,779
2023-02-01T02:11:33.681Z,815
2023-02-01T02:12:33.604Z,974
2023-02-01T02:13:33.649Z,930
2023-02-01T02:15:33.800Z,957
2023-02-01T02:16:33.668Z,901
2023-02-01T02:17:33.655Z,812
2023-02-01T02:18:33.654Z,914
2023-02-01T02:20:33.855Z,914
2023-02-01T02:21:33.648Z,1013
2023-02-01T02:22:33.649Z,580
2023-02-01T02:23:33.649Z,696
2023-02-01T02:25:33.798Z,974
2023-02-01T02:26:33.681Z,940
2023-02-01T02:27:33.653Z,977
2023-02-01T02:28:33.664Z,712
2023-02-01T02:30:33.895Z,720
2023-02-01T02:31:33.703Z,675
2023-02-01T02:32:33.657Z,675
2023-02-01T02:33:33.686Z,768
2023-02-01T02:35:33.833Z,665
2023-02-01T02:36:33.649Z,783
2023-02-01T02:37:33.697Z,693
2023-02-01T02:38:33.671Z,706
2023-02-01T02:40:33.814Z,927
2023-02-01T02:41:33.654Z,901
2023-02-01T02:42:33.663Z,1250
2023-02-01T02:43:33.663Z,1344
2023-02-01T02:45:33.897Z,842
2023-02-01T02:46:33.665Z,880
2023-02-01T02:47:33.663Z,920
2023-02-01T02:48:33.687Z,826
2023-02-01T02:50:33.871Z,832
2023-02-01T02:51:33.685Z,830
2023-02-01T02:52:33.664Z,849
2023-02-01T02:53:33.673Z,786
2023-02-01T02:55:33.866Z,1016
2023-02-01T02:56:33.681Z,888
2023-02-01T02:57:33.691Z,923
2023-02-01T02:58:33.660Z,974
2023-02-01T03:00:33.812Z,751
2023-02-01T03:01:33.627Z,857
2023-02-01T03:02:33.717Z,962
2023-02-01T03:03:33.632Z,852
2023-02-01T03:05:33.891Z,885
2023-02-01T03:06:33.663Z,895
2023-02-01T03:07:33.669Z,940
2023-02-01T03:08:33.676Z,828
2023-02-01T03:10:33.893Z,986
2023-02-01T03:11:33.679Z,606
2023-02-01T03:12:33.676Z,580
2023-02-01T03:13:33.684Z,633
2023-02-01T03:15:33.879Z,568
2023-02-01T03:16:33.712Z,680
2023-02-01T03:17:33.702Z,706
2023-02-01T03:18:33.683Z,930
2023-02-01T03:20:33.884Z,1034
2023-02-01T03:21:33.665Z,992
2023-02-01T03:22:33.704Z,1016
2023-02-01T03:23:33.698Z,933
2023-02-01T03:24:33.682Z,916
2023-02-01T03:25:33.847Z,1027
2023-02-01T03:26:33.695Z,1121
2023-02-01T03:27:33.692Z,1059
2023-02-01T03:28:33.675Z,794
2023-02-01T03:29:33.676Z,940
2023-02-01T03:30:33.826Z,916
2023-02-01T03:31:33.660Z,1004
2023-02-01T03:32:33.670Z,933
2023-02-01T03:33:33.637Z,946
2023-02-01T03:34:33.682Z,1046
2023-02-01T03:35:33.821Z,951
2023-02-01T03:36:33.673Z,1291
2023-02-01T03:37:33.680Z,1201
2023-02-01T03:38:33.678Z,1299
2023-02-01T03:39:33.671Z,990
2023-02-01T03:40:33.822Z,1071
2023-02-01T03:41:33.683Z,1246
2023-02-01T03:42:33.679Z,1144
2023-02-01T03:43:33.678Z,1221
2023-02-01T03:44:33.684Z,1444
2023-02-01T03:45:33.930Z,1427
2023-02-01T03:46:33.684Z,1284
2023-02-01T03:47:33.693Z,1444
2023-02-01T03:48:33.686Z,1537
2023-02-01T03:49:33.677Z,1314
2023-02-01T03:50:33.910Z,1550
2023-02-01T03:51:33.698Z,1478
2023-02-01T03:52:33.736Z,1295
2023-02-01T03:53:33.708Z,1250
2023-02-01T03:54:33.706Z,1311
2023-02-01T03:55:33.923Z,923
2023-02-01T03:56:33.678Z,1250
2023-02-01T03:57:33.706Z,1190
2023-02-01T03:58:33.712Z,957
2023-02-01T03:59:33.700Z,1161
2023-02-01T04:00:33.901Z,1084
2023-02-01T04:01:33.748Z,1243
2023-02-01T04:02:33.731Z,1258
2023-02-01T04:03:33.680Z,1344
2023-02-01T04:04:33.680Z,986
2023-02-01T04:05:33.856Z,983
2023-02-01T04:06:33.649Z,1311
2023-02-01T04:07:33.654Z,1398
2023-02-01T04:08:33.683Z,1173
2023-02-01T04:09:33.680Z,1082
2023-02-01T04:10:33.846Z,986
2023-02-01T04:11:33.686Z,895
2023-02-01T04:12:33.688Z,1031
2023-02-01T04:13:33.690Z,911
2023-02-01T04:14:33.698Z,1016
2023-02-01T04:15:33.943Z,1093
2023-02-01T04:16:33.718Z,930
2023-02-01T04:17:33.695Z,1007
2023-02-01T04:18:33.692Z,728
2023-02-01T04:20:33.929Z,674
2023-02-01T04:21:33.733Z,765
2023-02-01T04:22:33.702Z,761
2023-02-01T04:23:33.704Z,803
2023-02-01T04:25:33.888Z,927
2023-02-01T04:26:33.735Z,885
2023-02-01T04:27:33.768Z,951
2023-02-01T04:28:33.695Z,895
2023-02-01T04:30:33.946Z,830
2023-02-01T04:31:33.748Z,960
2023-02-01T04:32:33.697Z,720
2023-02-01T04:33:33.701Z,653
2023-02-01T04:35:33.912Z,627
2023-02-01T04:36:33.701Z,665
2023-02-01T04:37:33.704Z,689
2023-02-01T04:38:33.700Z,712
2023-02-01T04:40:33.916Z,779
2023-02-01T04:41:33.704Z,911
2023-02-01T04:42:33.726Z,983
2023-02-01T04:43:33.743Z,1068
2023-02-01T04:45:33.920Z,914
2023-02-01T04:46:33.739Z,960
2023-02-01T04:47:33.702Z,1389
2023-02-01T04:48:33.729Z,1059
2023-02-01T04:50:33.899Z,1113
2023-02-01T04:51:33.698Z,914
2023-02-01T04:52:33.665Z,880
2023-02-01T04:53:33.669Z,842
2023-02-01T04:55:33.942Z,589
2023-02-01T04:56:33.706Z,626
2023-02-01T04:57:33.697Z,674
2023-02-01T04:58:33.701Z,626
2023-02-01T05:00:33.840Z,1161
2023-02-01T05:01:33.777Z,962
2023-02-01T05:02:33.704Z,935
2023-02-01T05:03:33.671Z,878
2023-02-01T05:05:33.883Z,849
2023-02-01T05:06:33.702Z,974
2023-02-01T05:07:33.676Z,1124
2023-02-01T05:08:33.713Z,1144
2023-02-01T05:10:33.859Z,1043
2023-02-01T05:11:33.711Z,1046
2023-02-01T05:12:33.666Z,992
2023-02-01T05:13:33.702Z,679
2023-02-01T05:15:33.947Z,1084
2023-02-01T05:16:33.703Z,957
2023-02-01T05:17:33.715Z,951
2023-02-01T05:18:33.719Z,969
2023-02-01T05:20:33.937Z,885
2023-02-01T05:21:33.713Z,1038
2023-02-01T05:22:33.724Z,951
2023-02-01T05:23:33.716Z,990
2023-02-01T05:25:33.918Z,792
2023-02-01T05:26:33.768Z,720
2023-02-01T05:27:33.737Z,610
2023-02-01T05:28:33.750Z,633
2023-02-01T05:30:33.963Z,633
2023-02-01T05:31:33.832Z,655
2023-02-01T05:32:33.729Z,899
2023-02-01T05:33:33.738Z,855
2023-02-01T05:35:33.863Z,665
2023-02-01T05:36:33.702Z,817
2023-02-01T05:37:33.742Z,797
2023-02-01T05:38:33.719Z,761
2023-02-01T05:40:33.879Z,842
2023-02-01T05:41:33.673Z,828
2023-02-01T05:42:33.721Z,624
2023-02-01T05:43:33.727Z,629
2023-02-01T05:45:33.927Z,610
2023-02-01T05:46:33.777Z,689
2023-02-01T05:47:33.716Z,845
2023-02-01T05:48:33.723Z,909
2023-02-01T05:50:33.872Z,888
2023-02-01T05:51:33.713Z,895
2023-02-01T05:52:33.723Z,899
2023-02-01T05:53:33.731Z,920
2023-02-01T05:55:33.937Z,962
2023-02-01T05:56:33.733Z,770
2023-02-01T05:57:33.734Z,679
2023-02-01T05:58:33.766Z,672
2023-02-01T05:59:33.725Z,561
2023-02-01T06:00:33.922Z,561
2023-02-01T06:01:33.726Z,671
2023-02-01T06:02:33.754Z,671
2023-02-01T06:03:33.777Z,671
2023-02-01T06:04:33.729Z,671
2023-02-01T06:05:33.957Z,733
2023-02-01T06:06:33.763Z,806
2023-02-01T06:07:33.731Z,837
2023-02-01T06:08:33.747Z,815
2023-02-01T06:09:33.806Z,806
2023-02-01T06:10:33.921Z,797
2023-02-01T06:11:33.745Z,726
2023-02-01T06:12:33.726Z,741
2023-02-01T06:13:34.501Z,741
2023-02-01T06:14:33.697Z,611
2023-02-01T06:15:33.953Z,733
2023-02-01T06:16:33.727Z,706
2023-02-01T06:17:33.694Z,618
2023-02-01T06:18:33.789Z,634
2023-02-01T06:19:33.781Z,618
2023-02-01T06:20:33.951Z,618
2023-02-01T06:21:33.737Z,679
2023-02-01T06:22:33.730Z,679
2023-02-01T06:23:33.758Z,679
2023-02-01T06:24:33.762Z,679
2023-02-01T06:25:33.949Z,679
2023-02-01T06:26:33.768Z,779
2023-02-01T06:27:33.792Z,788
2023-02-01T06:28:33.698Z,715
2023-02-01T06:29:33.729Z,689
2023-02-01T06:30:33.953Z,689
2023-02-01T06:31:33.805Z,643
2023-02-01T06:32:33.744Z,738
2023-02-01T06:33:33.737Z,650
2023-02-01T06:34:33.757Z,642
2023-02-01T06:35:33.937Z,714
2023-02-01T06:36:33.742Z,777
2023-02-01T06:37:33.738Z,671
2023-02-01T06:38:33.745Z,671
2023-02-01T06:39:33.739Z,671
2023-02-01T06:40:33.883Z,733
2023-02-01T06:41:33.704Z,788
2023-02-01T06:42:33.732Z,815
2023-02-01T06:43:33.705Z,745
2023-02-01T06:44:33.747Z,743
2023-02-01T06:45:33.892Z,726
2023-02-01T06:46:33.746Z,651
2023-02-01T06:47:33.749Z,651
2023-02-01T06:48:33.781Z,651
2023-02-01T06:49:33.780Z,651
2023-02-01T06:50:33.939Z,651
2023-02-01T06:51:33.738Z,689
2023-02-01T06:52:33.744Z,689
2023-02-01T06:53:33.754Z,689
2023-02-01T06:54:33.765Z,696
2023-02-01T06:55:33.881Z,770
2023-02-01T06:56:33.758Z,803
2023-02-01T06:57:33.735Z,755
2023-02-01T06:58:33.739Z,812
2023-02-01T06:59:33.701Z,786
2023-02-01T07:00:33.917Z,679
2023-02-01T07:01:33.703Z,772
2023-02-01T07:02:33.747Z,759
2023-02-01T07:03:33.755Z,618
2023-02-01T07:04:33.741Z,655
2023-02-01T07:05:33.903Z,618
2023-02-01T07:06:33.779Z,650
2023-02-01T07:07:33.784Z,653
2023-02-01T07:08:33.799Z,640
2023-02-01T07:09:33.770Z,698
2023-02-01T07:10:33.949Z,700
2023-02-01T07:11:33.751Z,770
2023-02-01T07:12:33.773Z,604
2023-02-01T07:13:33.781Z,581
2023-02-01T07:14:33.756Z,581
2023-02-01T07:15:33.895Z,581
2023-02-01T07:16:33.831Z,634
2023-02-01T07:17:33.715Z,674
2023-02-01T07:18:33.714Z,675
2023-02-01T07:19:33.753Z,674
2023-02-01T07:20:33.984Z,674
2023-02-01T07:21:33.761Z,755
2023-02-01T07:22:33.757Z,709
2023-02-01T07:23:33.759Z,709
2023-02-01T07:24:33.762Z,709
2023-02-01T07:25:33.963Z,803
2023-02-01T07:26:33.767Z,701
2023-02-01T07:27:33.757Z,709
2023-02-01T07:28:33.754Z,706
2023-02-01T07:29:33.761Z,566
2023-02-01T07:30:33.995Z,566
2023-02-01T07:31:33.756Z,613
2023-02-01T07:32:33.786Z,534
2023-02-01T07:33:33.712Z,549
2023-02-01T07:34:33.753Z,521
2023-02-01T07:35:33.896Z,540
2023-02-01T07:36:33.712Z,575
2023-02-01T07:37:33.766Z,783
2023-02-01T07:38:33.769Z,528
2023-02-01T07:39:33.724Z,528
2023-02-01T07:40:33.900Z,528
2023-02-01T07:41:33.759Z,640
2023-02-01T07:42:33.759Z,627
2023-02-01T07:43:33.751Z,627
2023-02-01T07:44:33.762Z,627
2023-02-01T07:45:36.687Z,627
2023-02-01T07:46:33.761Z,610
2023-02-01T07:47:33.773Z,561
2023-02-01T07:48:33.772Z,637
2023-02-01T07:49:33.767Z,561
2023-02-01T07:50:33.998Z,561
2023-02-01T07:51:33.769Z,566
2023-02-01T07:52:33.733Z,573
2023-02-01T07:53:33.755Z,611
2023-02-01T07:54:33.756Z,589
2023-02-01T07:55:33.954Z,566
2023-02-01T07:56:33.758Z,575
2023-02-01T07:57:33.757Z,594
2023-02-01T07:58:33.724Z,575
2023-02-01T07:59:33.730Z,588
2023-02-01T08:00:33.965Z,575
2023-02-01T08:01:33.768Z,627
2023-02-01T08:02:33.850Z,627
2023-02-01T08:03:33.788Z,640
2023-02-01T08:04:33.769Z,627
2023-02-01T08:05:33.974Z,658
2023-02-01T08:06:33.766Z,566
2023-02-01T08:07:33.789Z,566
2023-02-01T08:08:33.732Z,566
2023-02-01T08:09:33.765Z,566
2023-02-01T08:10:33.998Z,566
2023-02-01T08:11:33.774Z,627
2023-02-01T08:12:33.774Z,627
2023-02-01T08:13:33.780Z,627
2023-02-01T08:14:33.767Z,627
2023-02-01T08:15:33.910Z,627
2023-02-01T08:16:33.809Z,599
2023-02-01T08:17:33.804Z,599
2023-02-01T08:18:33.792Z,599
2023-02-01T08:19:33.765Z,599
2023-02-01T08:20:33.974Z,599
2023-02-01T08:21:33.738Z,599
2023-02-01T08:22:33.770Z,599
2023-02-01T08:23:33.787Z,599
2023-02-01T08:24:33.788Z,599
2023-02-01T08:25:33.975Z,601
2023-02-01T08:26:33.868Z,647
2023-02-01T08:27:33.741Z,689
2023-02-01T08:28:33.784Z,698
2023-02-01T08:29:33.769Z,643
2023-02-01T08:30:33.929Z,614
2023-02-01T08:31:33.846Z,618
2023-02-01T08:32:33.814Z,666
2023-02-01T08:33:33.785Z,666
2023-02-01T08:34:35.735Z,618
2023-02-01T08:35:43.074Z,618
2023-02-01T08:36:33.822Z,610
2023-02-01T08:37:33.802Z,610
2023-02-01T08:38:33.790Z,610
2023-02-01T08:39:33.742Z,610
2023-02-01T08:40:33.996Z,610
2023-02-01T08:41:33.746Z,617
2023-02-01T08:42:33.769Z,592
2023-02-01T08:43:33.783Z,658
2023-02-01T08:44:33.781Z,679
2023-02-01T08:45:33.987Z,606
2023-02-01T08:46:33.777Z,656
2023-02-01T08:47:33.777Z,633
2023-02-01T08:48:33.782Z,642
2023-02-01T08:50:33.933Z,575
2023-02-01T08:51:33.745Z,470
2023-02-01T08:52:33.780Z,470
2023-02-01T08:53:33.812Z,470
2023-02-01T08:54:33.791Z,470
2023-02-01T08:55:33.933Z,606
2023-02-01T08:56:33.815Z,537
2023-02-01T08:57:33.803Z,447
2023-02-01T08:58:33.788Z,447
2023-02-01T08:59:33.741Z,500
2023-02-01T09:00:34.005Z,496
2023-02-01T09:01:33.915Z,596
2023-02-01T09:02:33.788Z,599
2023-02-01T09:03:33.827Z,528
2023-02-01T09:04:33.775Z,594
2023-02-01T09:05:47.674Z,653
2023-02-01T09:06:33.778Z,441
2023-02-01T09:07:33.828Z,495
2023-02-01T09:08:33.798Z,517
2023-02-01T09:09:33.788Z,529
2023-02-01T09:10:35.354Z,441
2023-02-01T09:11:33.790Z,447
2023-02-01T09:12:33.809Z,537
2023-02-01T09:13:33.788Z,521
2023-02-01T09:14:33.793Z,488
2023-02-01T09:15:34.051Z,488
2023-02-01T09:16:33.821Z,477
2023-02-01T09:17:33.826Z,535
2023-02-01T09:18:33.789Z,523
2023-02-01T09:19:33.802Z,500
2023-02-01T09:20:34.026Z,493
2023-02-01T09:21:33.791Z,528
2023-02-01T09:22:33.833Z,592
2023-02-01T09:23:33.819Z,528
2023-02-01T09:24:33.809Z,556
2023-02-01T09:25:33.960Z,565
2023-02-01T09:26:33.861Z,546
2023-02-01T09:27:33.754Z,508
2023-02-01T09:28:33.789Z,502
2023-02-01T09:29:33.794Z,502
2023-02-01T09:30:34.047Z,492
2023-02-01T09:31:33.970Z,581
2023-02-01T09:32:33.844Z,581
2023-02-01T09:33:33.826Z,581
2023-02-01T09:34:33.789Z,581
2023-02-01T09:35:34.005Z,581
2023-02-01T09:36:33.793Z,581
2023-02-01T09:37:33.790Z,581
2023-02-01T09:38:36.386Z,581
2023-02-01T09:39:33.766Z,581
2023-02-01T09:40:34.025Z,581
2023-02-01T09:41:33.842Z,519
2023-02-01T09:42:33.797Z,519
2023-02-01T09:43:33.812Z,519
2023-02-01T09:44:39.013Z,519
2023-02-01T09:45:33.942Z,519
2023-02-01T09:46:33.879Z,591
2023-02-01T09:47:33.762Z,591
2023-02-01T09:48:33.844Z,591
2023-02-01T09:49:33.811Z,591
2023-02-01T09:50:33.952Z,591
2023-02-01T09:51:33.802Z,618
2023-02-01T09:52:33.817Z,618
2023-02-01T09:53:33.794Z,618
2023-02-01T09:54:33.800Z,618
2023-02-01T09:55:33.949Z,618
2023-02-01T09:56:33.802Z,610
2023-02-01T09:57:33.835Z,626
2023-02-01T09:58:33.812Z,639
2023-02-01T09:59:33.790Z,610
2023-02-01T10:00:34.011Z,614
2023-02-01T10:01:33.843Z,519
2023-02-01T10:02:33.800Z,561
2023-02-01T10:03:33.840Z,556
2023-02-01T10:04:33.848Z,519
2023-02-01T10:05:34.027Z,519
2023-02-01T10:06:33.843Z,519
2023-02-01T10:07:33.808Z,519
2023-02-01T10:08:33.827Z,519
2023-02-01T10:09:33.823Z,519
2023-02-01T10:10:33.971Z,519
2023-02-01T10:11:33.809Z,592
2023-02-01T10:12:33.802Z,592
2023-02-01T10:13:33.801Z,592
2023-02-01T10:14:33.821Z,592
2023-02-01T10:15:34.092Z,592
2023-02-01T10:16:34.015Z,599
2023-02-01T10:17:33.868Z,599
2023-02-01T10:18:33.809Z,599
2023-02-01T10:19:33.845Z,614
2023-02-01T10:20:34.019Z,599
2023-02-01T10:21:33.827Z,566
2023-02-01T10:22:52.342Z,566
2023-02-01T10:23:34.874Z,581
2023-02-01T10:24:33.817Z,566
2023-02-01T10:25:33.975Z,629
2023-02-01T10:26:33.827Z,497
2023-02-01T10:27:33.784Z,478
2023-02-01T10:28:33.784Z,461
2023-02-01T10:30:35.579Z,524
2023-02-01T10:31:33.905Z,483
2023-02-01T10:32:33.838Z,483
2023-02-01T10:33:33.818Z,483
2023-02-01T10:34:33.820Z,483
2023-02-01T10:35:34.046Z,483
2023-02-01T10:36:33.819Z,585
2023-02-01T10:37:33.823Z,580
2023-02-01T10:38:33.819Z,566
2023-02-01T10:39:33.818Z,515
2023-02-01T10:40:34.048Z,546
2023-02-01T10:41:33.909Z,483
2023-02-01T10:42:33.816Z,439
2023-02-01T10:43:33.782Z,439
2023-02-01T10:44:33.795Z,439
2023-02-01T10:45:34.028Z,439
2023-02-01T10:46:33.880Z,523
2023-02-01T10:47:33.793Z,523
2023-02-01T10:48:33.824Z,523
2023-02-01T10:49:33.854Z,523
2023-02-01T10:50:34.026Z,523
2023-02-01T10:51:33.835Z,483
2023-02-01T10:52:33.784Z,483
2023-02-01T10:53:33.826Z,483
2023-02-01T10:54:33.812Z,483
2023-02-01T10:55:33.969Z,483
2023-02-01T10:56:33.834Z,523
2023-02-01T10:57:33.829Z,523
2023-02-01T10:58:33.838Z,523
2023-02-01T10:59:33.826Z,523
2023-02-01T11:00:34.028Z,523
2023-02-01T11:01:33.830Z,569
2023-02-01T11:02:33.878Z,569
2023-02-01T11:03:33.835Z,569
2023-02-01T11:04:33.827Z,569
2023-02-01T11:05:34.031Z,569
2023-02-01T11:06:33.828Z,523
2023-02-01T11:07:33.830Z,523
2023-02-01T11:08:33.786Z,523
2023-02-01T11:09:33.824Z,523
2023-02-01T11:10:33.976Z,523
2023-02-01T11:11:33.836Z,491
2023-02-01T11:12:33.834Z,491
2023-02-01T11:13:33.790Z,491
2023-02-01T11:14:33.832Z,491
2023-02-01T11:15:34.006Z,491
2023-02-01T11:16:33.845Z,447
2023-02-01T11:17:33.851Z,447
2023-02-01T11:18:33.837Z,447
2023-02-01T11:19:33.852Z,471
2023-02-01T11:20:34.066Z,447
2023-02-01T11:21:33.849Z,419
2023-02-01T11:22:33.876Z,420
2023-02-01T11:23:33.798Z,419
2023-02-01T11:24:33.855Z,419
2023-02-01T11:25:34.044Z,425
2023-02-01T11:26:33.993Z,425
2023-02-01T11:27:34.701Z,426
2023-02-01T11:28:33.839Z,448
2023-02-01T11:29:33.850Z,425
2023-02-01T11:30:34.027Z,425
2023-02-01T11:31:33.839Z,518
2023-02-01T11:32:33.812Z,518
2023-02-01T11:33:33.835Z,518
2023-02-01T11:34:33.833Z,518
2023-02-01T11:35:34.041Z,518
2023-02-01T11:36:33.833Z,485
2023-02-01T11:37:33.841Z,470
2023-02-01T11:38:33.842Z,470
2023-02-01T11:39:33.829Z,470
2023-02-01T11:40:33.983Z,470
2023-02-01T11:41:33.834Z,500
2023-02-01T11:42:33.838Z,500
2023-02-01T11:43:33.845Z,503
2023-02-01T11:44:33.856Z,500
2023-02-01T11:45:33.987Z,501
2023-02-01T11:46:33.908Z,460
2023-02-01T11:47:33.807Z,460
2023-02-01T11:48:33.832Z,460
2023-02-01T11:49:33.848Z,461
2023-02-01T11:50:33.990Z,460
2023-02-01T11:51:33.851Z,419
2023-02-01T11:52:33.849Z,419
2023-02-01T11:53:33.839Z,419
2023-02-01T11:54:33.855Z,419
2023-02-01T11:55:34.086Z,419
2023-02-01T11:56:33.838Z,460
2023-02-01T11:57:33.843Z,460
2023-02-01T11:58:33.847Z,460
2023-02-01T11:59:33.936Z,460
2023-02-01T12:00:33.994Z,460
2023-02-01T12:01:33.843Z,447
2023-02-01T12:02:33.847Z,447
2023-02-01T12:03:33.828Z,447
2023-02-01T12:04:33.803Z,447
2023-02-01T12:05:34.004Z,447
2023-02-01T12:06:33.813Z,477
2023-02-01T12:07:33.841Z,477
2023-02-01T12:08:33.876Z,477
2023-02-01T12:09:33.854Z,477
2023-02-01T12:10:34.002Z,477
2023-02-01T12:11:33.860Z,439
2023-02-01T12:12:33.876Z,439
2023-02-01T12:13:33.847Z,439
2023-02-01T12:15:34.073Z,439
2023-02-01T12:16:33.853Z,454
2023-02-01T12:17:33.850Z,454
2023-02-01T12:18:33.859Z,454
2023-02-01T12:19:33.868Z,457
2023-02-01T12:20:34.057Z,454
2023-02-01T12:21:33.821Z,523
2023-02-01T12:22:33.848Z,534
2023-02-01T12:23:34.093Z,523
2023-02-01T12:24:33.863Z,523
2023-02-01T12:25:34.031Z,523
2023-02-01T12:26:33.878Z,447
2023-02-01T12:27:33.819Z,447
2023-02-01T12:28:33.839Z,447
2023-02-01T12:29:33.888Z,507
2023-02-01T12:30:34.031Z,447
2023-02-01T12:31:33.895Z,517
2023-02-01T12:32:33.853Z,493
2023-02-01T12:33:33.887Z,454
2023-02-01T12:35:34.092Z,454
2023-02-01T12:36:33.818Z,447
2023-02-01T12:37:33.893Z,447
2023-02-01T12:38:33.821Z,502
2023-02-01T12:39:33.867Z,537
2023-02-01T12:40:34.012Z,447
2023-02-01T12:41:33.823Z,621
2023-02-01T12:42:33.868Z,470
2023-02-01T12:43:33.870Z,564
2023-02-01T12:45:34.134Z,709
2023-02-01T12:46:33.869Z,507
2023-02-01T12:47:33.872Z,553
2023-02-01T12:48:33.825Z,419
2023-02-01T12:49:33.883Z,451
2023-02-01T12:50:34.017Z,419
2023-02-01T12:51:33.862Z,450
2023-02-01T12:52:33.883Z,409
2023-02-01T12:53:33.829Z,400
2023-02-01T12:55:34.097Z,400
2023-02-01T12:56:33.868Z,407
2023-02-01T12:57:33.837Z,426
2023-02-01T12:58:33.875Z,407
2023-02-01T13:00:34.071Z,407
2023-02-01T13:01:33.883Z,400
2023-02-01T13:02:33.912Z,419
2023-02-01T13:03:33.868Z,401
2023-02-01T13:04:33.870Z,400
2023-02-01T13:05:34.008Z,400
2023-02-01T13:06:33.869Z,462
2023-02-01T13:07:33.830Z,462
2023-02-01T13:08:33.874Z,526
2023-02-01T13:10:34.091Z,462
2023-02-01T13:11:33.879Z,447
2023-02-01T13:12:33.888Z,447
2023-02-01T13:13:33.876Z,447
2023-02-01T13:15:34.029Z,447
2023-02-01T13:16:33.926Z,599
2023-02-01T13:17:33.885Z,599
2023-02-01T13:18:33.914Z,599
2023-02-01T13:20:34.095Z,599
2023-02-01T13:21:33.890Z,492
2023-02-01T13:22:33.890Z,492
2023-02-01T13:23:33.927Z,492
2023-02-01T13:25:34.024Z,492
2023-02-01T13:26:33.924Z,535
2023-02-01T13:27:33.875Z,535
2023-02-01T13:28:33.877Z,535
2023-02-01T13:30:34.106Z,535
2023-02-01T13:31:34.425Z,485
2023-02-01T13:32:53.023Z,485
2023-02-01T13:33:51.843Z,485
2023-02-01T13:35:34.087Z,485
2023-02-01T13:36:33.879Z,492
2023-02-01T13:37:33.886Z,492
2023-02-01T13:38:33.886Z,492
2023-02-01T13:40:34.115Z,492
2023-02-01T13:41:33.889Z,492
2023-02-01T13:42:33.896Z,492
2023-02-01T13:43:33.887Z,492
2023-02-01T13:45:34.107Z,492
2023-02-01T13:46:33.893Z,500
2023-02-01T13:47:33.929Z,500
2023-02-01T13:48:33.878Z,500
2023-02-01T13:50:34.029Z,500
2023-02-01T13:51:33.886Z,455
2023-02-01T13:52:33.887Z,455
2023-02-01T13:53:33.861Z,455
2023-02-01T13:55:34.085Z,491
2023-02-01T13:56:33.891Z,428
2023-02-01T13:57:33.852Z,445
2023-02-01T13:58:33.889Z,400
2023-02-01T14:00:35.926Z,400
2023-02-01T14:01:33.895Z,475
2023-02-01T14:02:33.888Z,475
2023-02-01T14:03:33.898Z,475
2023-02-01T14:05:34.034Z,475
2023-02-01T14:06:33.895Z,548
2023-02-01T14:07:33.892Z,548
2023-02-01T14:08:33.878Z,548
2023-02-01T14:10:34.030Z,548
2023-02-01T14:11:33.855Z,540
2023-02-01T14:12:33.899Z,540
2023-02-01T14:13:33.950Z,540
2023-02-01T14:15:34.141Z,540
2023-02-01T14:16:33.901Z,584
2023-02-01T14:17:33.912Z,584
2023-02-01T14:18:33.901Z,584
2023-02-01T14:20:34.053Z,584
2023-02-01T14:21:33.862Z,584
2023-02-01T14:22:33.899Z,584
2023-02-01T14:23:33.911Z,584
2023-02-01T14:25:34.059Z,584
2023-02-01T14:26:33.874Z,584
2023-02-01T14:27:33.902Z,584
2023-02-01T14:28:33.863Z,584
2023-02-01T14:30:34.131Z,584
2023-02-01T14:31:33.983Z,633
2023-02-01T14:32:33.912Z,633
2023-02-01T14:33:33.916Z,633
2023-02-01T14:35:34.114Z,633
2023-02-01T14:36:33.895Z,540
2023-02-01T14:37:33.928Z,540
2023-02-01T14:38:33.906Z,540
2023-02-01T14:40:34.113Z,540
2023-02-01T14:41:33.907Z,495
2023-02-01T14:42:33.959Z,495
2023-02-01T14:43:35.586Z,495
2023-02-01T14:45:34.079Z,495
2023-02-01T14:46:33.952Z,633
2023-02-01T14:47:33.868Z,633
2023-02-01T14:48:33.915Z,633
2023-02-01T14:50:34.097Z,633
2023-02-01T14:51:33.910Z,530
2023-02-01T14:52:33.877Z,530
2023-02-01T14:53:33.914Z,530
2023-02-01T14:55:34.113Z,530
2023-02-01T14:56:33.902Z,575
2023-02-01T14:57:33.940Z,575
2023-02-01T14:58:33.915Z,575
2023-02-01T15:00:34.060Z,575
2023-02-01T15:01:33.924Z,495
2023-02-01T15:02:33.945Z,495
2023-02-01T15:03:33.909Z,495
2023-02-01T15:05:34.125Z,495
2023-02-01T15:06:33.915Z,565
2023-02-01T15:07:33.905Z,565
2023-02-01T15:08:33.876Z,565
2023-02-01T15:10:34.113Z,565
2023-02-01T15:11:33.901Z,502
2023-02-01T15:12:33.880Z,502
2023-02-01T15:13:33.947Z,502
2023-02-01T15:15:34.115Z,502
2023-02-01T15:16:33.921Z,502